createdAt,value
2023-04-07T00:00:31.527Z,91.05
2023-04-07T00:01:31.499Z,91.24
2023-04-07T00:02:31.418Z,91.43
2023-04-07T00:03:52.339Z,91.34
2023-04-07T00:04:31.245Z,91.34
2023-04-07T00:05:31.092Z,91.29
2023-04-07T00:06:31.015Z,91.39
2023-04-07T00:07:30.920Z,90.16
2023-04-07T00:08:30.831Z,90.63
2023-04-07T00:09:51.721Z,90.01
2023-04-07T00:10:30.663Z,90.30
2023-04-07T00:11:30.571Z,90.58
2023-04-07T00:12:30.486Z,90.82
2023-04-07T00:13:30.874Z,91.15
2023-04-07T00:14:30.313Z,91.34
2023-04-07T00:15:51.289Z,91.43
2023-04-07T00:16:30.136Z,91.34
2023-04-07T00:17:30.094Z,91.43
2023-04-07T00:18:29.966Z,91.72
2023-04-07T00:19:29.882Z,91.72
2023-04-07T00:20:29.816Z,92.94
2023-04-07T00:21:50.690Z,92.76
2023-04-07T00:22:29.621Z,93.51
2023-04-07T00:23:29.543Z,93.51
2023-04-07T00:24:34.273Z,93.70
2023-04-07T00:25:29.372Z,93.99
2023-04-07T00:26:29.282Z,93.51
2023-04-07T00:27:50.182Z,93.89
2023-04-07T00:28:29.109Z,92.94
2023-04-07T00:29:29.032Z,92.19
2023-04-07T00:30:28.943Z,92.05
2023-04-07T00:31:28.916Z,91.72
2023-04-07T00:32:28.824Z,91.15
2023-04-07T00:33:49.673Z,91.62
2023-04-07T00:34:28.591Z,91.86
2023-04-07T00:35:28.546Z,91.29
2023-04-07T00:36:28.422Z,90.86
2023-04-07T00:37:28.348Z,91.39
2023-04-07T00:38:28.245Z,90.44
2023-04-07T00:39:49.170Z,90.34
2023-04-07T00:40:28.076Z,90.44
2023-04-07T00:41:27.994Z,90.34
2023-04-07T00:42:27.911Z,90.63
2023-04-07T00:43:27.819Z,90.34
2023-04-07T00:44:27.735Z,90.34
2023-04-07T00:45:48.632Z,91.10
2023-04-07T00:46:27.580Z,91.15
2023-04-07T00:47:27.526Z,91.24
2023-04-07T00:48:27.403Z,91.05
2023-04-07T00:49:27.309Z,91.43
2023-04-07T00:50:27.218Z,91.24
2023-04-07T00:51:48.114Z,91.34
2023-04-07T00:52:27.047Z,91.05
2023-04-07T00:53:26.966Z,91.15
2023-04-07T00:54:26.882Z,91.15
2023-04-07T00:55:26.789Z,91.05
2023-04-07T00:56:26.710Z,91.62
2023-04-07T00:57:47.605Z,91.43
2023-04-07T00:58:26.534Z,92.29
2023-04-07T00:59:26.476Z,92.10
2023-04-07T01:00:26.353Z,92.10
2023-04-07T01:01:26.400Z,92.14
2023-04-07T01:02:26.360Z,91.05
2023-04-07T01:03:47.431Z,91.43
2023-04-07T01:04:26.113Z,91.34
2023-04-07T01:05:25.930Z,91.01
2023-04-07T01:06:25.835Z,91.96
2023-04-07T01:07:25.752Z,92.05
2023-04-07T01:08:25.666Z,92.00
2023-04-07T01:09:46.570Z,92.10
2023-04-07T01:10:25.496Z,92.10
2023-04-07T01:11:25.421Z,91.91
2023-04-07T01:12:25.332Z,92.47
2023-04-07T01:13:25.242Z,92.10
2023-04-07T01:14:25.168Z,92.29
2023-04-07T01:15:46.071Z,92.47
2023-04-07T01:16:25.022Z,91.53
2023-04-07T01:17:24.924Z,91.34
2023-04-07T01:18:24.806Z,91.34
2023-04-07T01:19:24.721Z,91.34
2023-04-07T01:20:24.637Z,91.15
2023-04-07T01:21:45.527Z,91.43
2023-04-07T01:22:24.464Z,91.34
2023-04-07T01:23:24.377Z,91.34
2023-04-07T01:24:24.287Z,91.34
2023-04-07T01:25:24.204Z,91.43
2023-04-07T01:26:24.118Z,91.34
2023-04-07T01:27:45.005Z,91.72
2023-04-07T01:28:23.938Z,91.81
2023-04-07T01:29:23.862Z,91.53
2023-04-07T01:30:23.769Z,91.62
2023-04-07T01:31:23.725Z,91.34
2023-04-07T01:32:23.617Z,91.62
2023-04-07T01:33:44.513Z,91.53
2023-04-07T01:34:23.429Z,92.29
2023-04-07T01:35:23.345Z,92.14
2023-04-07T01:36:23.250Z,92.05
2023-04-07T01:37:23.277Z,92.38
2023-04-07T01:38:23.078Z,92.29
2023-04-07T01:39:43.988Z,92.85
2023-04-07T01:40:22.915Z,93.13
2023-04-07T01:41:22.833Z,93.04
2023-04-07T01:42:22.742Z,92.94
2023-04-07T01:43:22.668Z,93.23
2023-04-07T01:44:22.566Z,93.51
2023-04-07T01:45:43.478Z,93.23
2023-04-07T01:46:22.394Z,93.23
2023-04-07T01:47:22.444Z,93.61
2023-04-07T01:48:22.220Z,93.89
2023-04-07T01:49:22.144Z,93.61
2023-04-07T01:50:22.081Z,93.70
2023-04-07T01:51:42.950Z,93.51
2023-04-07T01:52:21.878Z,93.51
2023-04-07T01:53:21.814Z,93.51
2023-04-07T01:54:21.724Z,93.42
2023-04-07T01:55:21.637Z,93.51
2023-04-07T01:56:21.577Z,94.08
2023-04-07T01:57:42.438Z,93.70
2023-04-07T01:58:21.360Z,94.18
2023-04-07T01:59:21.275Z,93.89
2023-04-07T02:00:21.201Z,94.27
2023-04-07T02:01:21.136Z,94.37
2023-04-07T02:02:21.090Z,94.37
2023-04-07T02:03:41.987Z,93.99
2023-04-07T02:04:20.847Z,94.18
2023-04-07T02:05:20.775Z,93.80
2023-04-07T02:06:20.678Z,94.08
2023-04-07T02:07:20.588Z,94.56
2023-04-07T02:08:20.498Z,94.56
2023-04-07T02:09:41.419Z,94.56
2023-04-07T02:10:20.329Z,94.74
2023-04-07T02:11:20.248Z,94.27
2023-04-07T02:12:20.155Z,94.08
2023-04-07T02:13:20.091Z,94.84
2023-04-07T02:14:19.984Z,94.27
2023-04-07T02:15:40.883Z,94.93
2023-04-07T02:16:19.837Z,94.84
2023-04-07T02:17:19.729Z,94.74
2023-04-07T02:18:19.639Z,94.93
2023-04-07T02:19:19.556Z,95.12
2023-04-07T02:20:19.468Z,95.03
2023-04-07T02:21:40.356Z,95.50
2023-04-07T02:22:19.291Z,95.31
2023-04-07T02:23:19.208Z,95.59
2023-04-07T02:24:19.117Z,95.59
2023-04-07T02:25:19.036Z,95.12
2023-04-07T02:26:18.955Z,95.12
2023-04-07T02:27:39.840Z,95.03
2023-04-07T02:28:18.772Z,94.65
2023-04-07T02:29:18.699Z,94.56
2023-04-07T02:30:18.612Z,94.65
2023-04-07T02:31:18.600Z,94.93
2023-04-07T02:32:18.427Z,94.60
2023-04-07T02:33:39.324Z,94.74
2023-04-07T02:34:18.261Z,93.80
2023-04-07T02:35:18.176Z,94.04
2023-04-07T02:36:18.095Z,94.46
2023-04-07T02:37:18.000Z,93.75
2023-04-07T02:38:17.919Z,93.70
2023-04-07T02:39:38.833Z,93.66
2023-04-07T02:40:17.754Z,93.61
2023-04-07T02:41:17.654Z,93.75
2023-04-07T02:42:17.596Z,93.85
2023-04-07T02:43:17.480Z,94.42
2023-04-07T02:44:17.402Z,93.56
2023-04-07T02:45:38.316Z,93.99
2023-04-07T02:46:17.245Z,93.66
2023-04-07T02:47:17.139Z,93.85
2023-04-07T02:48:17.059Z,94.04
2023-04-07T02:49:16.957Z,93.56
2023-04-07T02:50:16.885Z,93.75
2023-04-07T02:51:37.771Z,93.51
2023-04-07T02:52:16.705Z,93.75
2023-04-07T02:53:16.618Z,93.75
2023-04-07T02:54:16.558Z,94.13
2023-04-07T02:55:16.445Z,94.60
2023-04-07T02:56:16.358Z,95.45
2023-04-07T02:57:37.260Z,95.83
2023-04-07T02:58:16.188Z,96.02
2023-04-07T02:59:16.110Z,95.64
2023-04-07T03:00:16.016Z,96.21
2023-04-07T03:01:15.951Z,95.93
2023-04-07T03:02:15.934Z,96.50
2023-04-07T03:03:36.862Z,96.59
2023-04-07T03:04:15.808Z,96.64
2023-04-07T03:05:15.589Z,96.92
2023-04-07T03:06:15.496Z,96.83
2023-04-07T03:07:15.424Z,97.49
2023-04-07T03:08:15.324Z,97.30
2023-04-07T03:09:36.221Z,97.39
2023-04-07T03:10:15.159Z,96.83
2023-04-07T03:11:15.066Z,96.45
2023-04-07T03:12:14.982Z,96.16
2023-04-07T03:13:14.898Z,96.07
2023-04-07T03:14:14.810Z,95.50
2023-04-07T03:15:35.693Z,95.83
2023-04-07T03:16:14.636Z,95.36
2023-04-07T03:17:14.551Z,95.36
2023-04-07T03:18:14.464Z,95.45
2023-04-07T03:19:14.386Z,95.17
2023-04-07T03:20:14.296Z,95.17
2023-04-07T03:21:35.184Z,95.36
2023-04-07T03:22:14.121Z,95.17
2023-04-07T03:23:14.037Z,95.26
2023-04-07T03:24:13.951Z,95.45
2023-04-07T03:25:13.877Z,95.17
2023-04-07T03:26:13.776Z,95.55
2023-04-07T03:27:34.664Z,95.93
2023-04-07T03:28:13.604Z,96.21
2023-04-07T03:29:13.513Z,96.31
2023-04-07T03:30:13.432Z,96.31
2023-04-07T03:31:13.377Z,95.93
2023-04-07T03:32:13.267Z,95.45
2023-04-07T03:33:34.169Z,95.17
2023-04-07T03:34:13.096Z,95.36
2023-04-07T03:35:13.021Z,95.36
2023-04-07T03:36:12.942Z,95.74
2023-04-07T03:37:12.829Z,96.31
2023-04-07T03:38:12.755Z,95.93
2023-04-07T03:39:33.646Z,96.21
2023-04-07T03:40:12.602Z,96.50
2023-04-07T03:41:12.479Z,96.40
2023-04-07T03:42:12.402Z,96.50
2023-04-07T03:43:12.330Z,96.69
2023-04-07T03:44:12.227Z,97.06
2023-04-07T03:45:33.135Z,97.63
2023-04-07T03:46:12.063Z,97.91
2023-04-07T03:47:11.968Z,98.77
2023-04-07T03:48:11.910Z,98.48
2023-04-07T03:49:11.798Z,98.01
2023-04-07T03:50:11.714Z,98.48
2023-04-07T03:51:32.602Z,98.58
2023-04-07T03:52:11.540Z,98.77
2023-04-07T03:53:11.465Z,98.77
2023-04-07T03:54:11.369Z,98.67
2023-04-07T03:55:11.278Z,98.67
2023-04-07T03:56:11.199Z,98.48
2023-04-07T03:57:32.088Z,98.86
2023-04-07T03:58:11.024Z,98.77
2023-04-07T03:59:10.937Z,98.96
2023-04-07T04:00:10.868Z,98.86
2023-04-07T04:01:10.767Z,99.24
2023-04-07T04:02:10.757Z,98.58
2023-04-07T04:03:31.641Z,99.05
2023-04-07T04:04:10.713Z,99.05
2023-04-07T04:05:10.420Z,98.86
2023-04-07T04:06:10.332Z,99.24
2023-04-07T04:07:10.245Z,98.77
2023-04-07T04:08:10.172Z,98.58
2023-04-07T04:09:31.074Z,98.67
2023-04-07T04:10:09.990Z,97.82
2023-04-07T04:11:09.912Z,97.91
2023-04-07T04:12:09.823Z,97.44
2023-04-07T04:13:09.737Z,97.63
2023-04-07T04:14:09.656Z,97.34
2023-04-07T04:15:30.548Z,97.44
2023-04-07T04:16:09.519Z,97.44
2023-04-07T04:17:09.388Z,96.97
2023-04-07T04:18:09.311Z,97.44
2023-04-07T04:19:09.224Z,96.78
2023-04-07T04:20:09.133Z,97.06
2023-04-07T04:21:30.030Z,96.88
2023-04-07T04:22:08.997Z,96.97
2023-04-07T04:23:08.916Z,96.69
2023-04-07T04:24:08.796Z,96.69
2023-04-07T04:25:08.717Z,96.69
2023-04-07T04:26:08.624Z,96.59
2023-04-07T04:27:29.510Z,96.97
2023-04-07T04:28:08.450Z,96.59
2023-04-07T04:29:08.362Z,96.88
2023-04-07T04:30:08.283Z,96.50
2023-04-07T04:31:08.244Z,96.78
2023-04-07T04:32:08.129Z,96.78
2023-04-07T04:33:28.992Z,96.88
2023-04-07T04:34:07.943Z,96.59
2023-04-07T04:35:07.847Z,96.40
2023-04-07T04:36:07.756Z,96.69
2023-04-07T04:37:07.691Z,97.06
2023-04-07T04:38:07.592Z,96.97
2023-04-07T04:39:28.479Z,97.44
2023-04-07T04:40:07.428Z,98.39
2023-04-07T04:41:07.337Z,98.20
2023-04-07T04:42:07.241Z,98.01
2023-04-07T04:43:07.213Z,97.63
2023-04-07T04:44:07.344Z,97.63
2023-04-07T04:45:27.959Z,97.34
2023-04-07T04:46:06.912Z,97.16
2023-04-07T04:47:06.847Z,96.97
2023-04-07T04:48:06.785Z,96.88
2023-04-07T04:49:06.635Z,96.69
2023-04-07T04:50:06.571Z,96.97
2023-04-07T04:51:27.473Z,96.69
2023-04-07T04:52:06.389Z,97.06
2023-04-07T04:53:06.293Z,97.06
2023-04-07T04:54:06.216Z,96.97
2023-04-07T04:55:06.129Z,96.88
2023-04-07T04:56:06.043Z,96.97
2023-04-07T04:57:26.962Z,96.69
2023-04-07T04:58:05.870Z,97.06
2023-04-07T04:59:05.790Z,97.63
2023-04-07T05:00:05.706Z,98.10
2023-04-07T05:01:05.717Z,98.48
2023-04-07T05:02:05.628Z,98.58
2023-04-07T05:03:26.577Z,98.48
2023-04-07T05:04:05.473Z,98.10
2023-04-07T05:05:05.522Z,97.91
2023-04-07T05:06:05.182Z,97.63
2023-04-07T05:07:05.097Z,97.72
2023-04-07T05:08:05.006Z,97.91
2023-04-07T05:09:25.895Z,97.44
2023-04-07T05:10:04.844Z,97.25
2023-04-07T05:11:04.749Z,96.88
2023-04-07T05:12:04.662Z,97.44
2023-04-07T05:13:04.582Z,97.49
2023-04-07T05:14:04.504Z,97.34
2023-04-07T05:15:25.380Z,97.91
2023-04-07T05:16:04.346Z,97.25
2023-04-07T05:17:04.228Z,97.58
2023-04-07T05:18:04.184Z,97.44
2023-04-07T05:19:04.074Z,97.72
2023-04-07T05:20:03.977Z,97.39
2023-04-07T05:21:24.896Z,97.30
2023-04-07T05:22:03.804Z,97.68
2023-04-07T05:23:03.718Z,98.67
2023-04-07T05:24:03.651Z,98.25
2023-04-07T05:25:03.543Z,97.58
2023-04-07T05:26:03.466Z,97.91
2023-04-07T05:27:24.359Z,98.01
2023-04-07T05:28:03.301Z,98.58
2023-04-07T05:29:03.262Z,98.72
2023-04-07T05:30:03.117Z,99.57
2023-04-07T05:31:03.838Z,99.19
2023-04-07T05:32:03.066Z,99.10
2023-04-07T05:33:23.840Z,98.44
2023-04-07T05:34:02.794Z,98.91
2023-04-07T05:35:02.698Z,99.48
2023-04-07T05:36:02.643Z,98.53
2023-04-07T05:37:02.521Z,98.91
2023-04-07T05:38:02.436Z,99.10
2023-04-07T05:39:23.325Z,98.34
2023-04-07T05:40:02.267Z,98.72
2023-04-07T05:41:02.189Z,98.34
2023-04-07T05:42:02.089Z,98.34
2023-04-07T05:43:02.038Z,98.25
2023-04-07T05:44:01.924Z,97.77
2023-04-07T05:45:22.838Z,97.02
2023-04-07T05:46:01.786Z,97.02
2023-04-07T05:47:01.657Z,97.68
2023-04-07T05:48:01.676Z,97.58
2023-04-07T05:49:16.698Z,98.06
2023-04-07T05:50:01.400Z,97.49
2023-04-07T05:51:22.294Z,98.15
2023-04-07T05:52:01.240Z,97.68
2023-04-07T05:53:01.142Z,97.96
2023-04-07T05:54:01.061Z,98.44
2023-04-07T05:55:00.986Z,98.91
2023-04-07T05:56:00.893Z,98.82
2023-04-07T05:57:21.778Z,98.82
2023-04-07T05:58:00.721Z,98.63
2023-04-07T05:59:00.639Z,98.91
2023-04-07T06:00:00.561Z,98.63
2023-04-07T06:01:00.466Z,98.63
2023-04-07T06:02:00.454Z,98.72
2023-04-07T06:03:21.383Z,98.44
2023-04-07T06:04:00.275Z,96.83
2023-04-07T06:05:00.167Z,97.20
2023-04-07T06:06:00.049Z,95.97
2023-04-07T06:06:59.946Z,96.07
2023-04-07T06:07:59.864Z,95.93
2023-04-07T06:09:20.752Z,96.40
2023-04-07T06:09:59.698Z,96.31
2023-04-07T06:10:59.604Z,96.21
2023-04-07T06:11:59.517Z,96.12
2023-04-07T06:12:59.433Z,95.64
2023-04-07T06:13:59.353Z,96.31
2023-04-07T06:15:20.242Z,96.31
2023-04-07T06:15:59.186Z,96.12
2023-04-07T06:16:59.116Z,96.02
2023-04-07T06:17:59.054Z,97.35
2023-04-07T06:18:58.929Z,96.02
2023-04-07T06:19:58.850Z,97.06
2023-04-07T06:21:19.728Z,96.12
2023-04-07T06:21:58.666Z,96.12
2023-04-07T06:22:58.585Z,96.88
2023-04-07T06:23:58.506Z,95.83
2023-04-07T06:24:58.414Z,95.55
2023-04-07T06:25:58.329Z,95.26
2023-04-07T06:27:19.214Z,95.26
2023-04-07T06:27:58.154Z,95.79
2023-04-07T06:28:58.062Z,96.45
2023-04-07T06:29:58.025Z,96.55
2023-04-07T06:30:59.445Z,97.21
2023-04-07T06:31:57.829Z,97.49
2023-04-07T06:33:18.717Z,97.40
2023-04-07T06:33:57.645Z,96.83
2023-04-07T06:34:57.666Z,96.83
2023-04-07T06:35:57.505Z,96.45
2023-04-07T06:36:58.321Z,96.73
2023-04-07T06:37:57.312Z,96.83
2023-04-07T06:39:18.192Z,96.64
2023-04-07T06:39:57.133Z,97.02
2023-04-07T06:40:57.044Z,97.78
2023-04-07T06:41:56.984Z,98.35
2023-04-07T06:42:56.878Z,98.44
2023-04-07T06:43:56.807Z,98.16
2023-04-07T06:45:17.702Z,97.59
2023-04-07T06:45:56.640Z,97.45
2023-04-07T06:46:56.561Z,97.26
2023-04-07T06:47:56.510Z,97.45
2023-04-07T06:48:56.371Z,97.16
2023-04-07T06:49:56.285Z,97.73
2023-04-07T06:51:17.177Z,97.64
2023-04-07T06:51:56.113Z,97.16
2023-04-07T06:52:56.027Z,96.31
2023-04-07T06:53:55.955Z,97.16
2023-04-07T06:54:55.860Z,96.97
2023-04-07T06:55:55.771Z,97.26
2023-04-07T06:57:16.676Z,96.69
2023-04-07T06:57:55.604Z,96.31
2023-04-07T06:58:55.524Z,97.16
2023-04-07T06:59:55.435Z,95.98
2023-04-07T07:00:55.356Z,95.69
2023-04-07T07:01:55.344Z,95.79
2023-04-07T07:03:16.403Z,96.73
2023-04-07T07:03:55.229Z,97.50
2023-04-07T07:04:55.022Z,97.31
2023-04-07T07:05:54.934Z,97.78
2023-04-07T07:06:54.845Z,97.88
2023-04-07T07:07:54.759Z,98.44
2023-04-07T07:09:15.658Z,97.97
2023-04-07T07:09:54.590Z,96.92
2023-04-07T07:10:54.520Z,96.17
2023-04-07T07:11:54.435Z,96.03
2023-04-07T07:12:54.349Z,95.84
2023-04-07T07:13:54.261Z,95.46
2023-04-07T07:15:15.154Z,95.36
2023-04-07T07:15:54.213Z,95.17
2023-04-07T07:16:54.017Z,95.07
2023-04-07T07:17:54.191Z,95.36
2023-04-07T07:18:53.843Z,93.94
2023-04-07T07:19:53.748Z,94.23
2023-04-07T07:21:14.648Z,94.13
2023-04-07T07:21:53.582Z,94.51
2023-04-07T07:22:53.503Z,94.08
2023-04-07T07:23:53.441Z,93.89
2023-04-07T07:24:53.332Z,93.41
2023-04-07T07:25:53.257Z,93.32
2023-04-07T07:27:14.149Z,94.08
2023-04-07T07:27:53.088Z,93.99
2023-04-07T07:28:52.996Z,93.80
2023-04-07T07:29:52.911Z,94.18
2023-04-07T07:30:52.848Z,93.13
2023-04-07T07:31:54.432Z,93.13
2023-04-07T07:33:13.662Z,93.13
2023-04-07T07:33:52.573Z,93.32
2023-04-07T07:34:52.491Z,93.60
2023-04-07T07:35:52.461Z,92.37
2023-04-07T07:36:52.337Z,91.71
2023-04-07T07:37:52.245Z,91.75
2023-04-07T07:39:13.151Z,90.61
2023-04-07T07:39:52.080Z,91.19
2023-04-07T07:40:52.016Z,91.94
2023-04-07T07:41:51.959Z,91.85
2023-04-07T07:42:51.846Z,91.85
2023-04-07T07:43:51.740Z,91.85
2023-04-07T07:45:12.640Z,90.52
2023-04-07T07:45:51.575Z,90.23
2023-04-07T07:46:51.538Z,90.47
2023-04-07T07:47:51.434Z,89.80
2023-04-07T07:48:51.496Z,89.52
2023-04-07T07:49:51.243Z,90.00
2023-04-07T07:51:12.141Z,89.42
2023-04-07T07:51:51.101Z,88.57
2023-04-07T07:52:51.007Z,87.81
2023-04-07T07:53:50.917Z,86.57
2023-04-07T07:54:50.827Z,85.53
2023-04-07T07:55:50.743Z,87.05
2023-04-07T07:57:11.644Z,87.43
2023-04-07T07:57:50.578Z,87.90
2023-04-07T07:58:50.505Z,87.90
2023-04-07T07:59:50.413Z,86.95
2023-04-07T08:00:50.581Z,87.05
2023-04-07T08:01:50.370Z,86.76
2023-04-07T08:03:11.382Z,85.81
2023-04-07T08:03:50.351Z,85.19
2023-04-07T08:04:50.141Z,84.52
2023-04-07T08:05:49.998Z,84.43
2023-04-07T08:06:49.911Z,84.62
2023-04-07T08:07:49.828Z,84.62
2023-04-07T08:09:10.649Z,84.43
2023-04-07T08:09:49.588Z,83.76
2023-04-07T08:10:49.509Z,83.58
2023-04-07T08:11:49.422Z,83.95
2023-04-07T08:12:49.351Z,82.71
2023-04-07T08:13:49.697Z,83.00
2023-04-07T08:15:10.160Z,82.24
2023-04-07T08:15:49.101Z,81.01
2023-04-07T08:16:49.012Z,81.58
2023-04-07T08:17:49.006Z,81.67
2023-04-07T08:18:49.133Z,80.15
2023-04-07T08:19:48.762Z,80.24
2023-04-07T08:21:09.691Z,80.76
2023-04-07T08:21:48.652Z,80.95
2023-04-07T08:22:48.519Z,80.00
2023-04-07T08:23:48.665Z,80.29
2023-04-07T08:24:48.361Z,79.52
2023-04-07T08:25:48.264Z,79.30
2023-04-07T08:27:09.173Z,79.52
2023-04-07T08:27:48.216Z,79.81
2023-04-07T08:28:48.026Z,78.77
2023-04-07T08:29:47.951Z,78.67
2023-04-07T08:30:47.941Z,80.76
2023-04-07T08:31:47.796Z,80.10
2023-04-07T08:33:08.747Z,79.33
2023-04-07T08:33:47.952Z,79.91
2023-04-07T08:34:47.542Z,81.81
2023-04-07T08:35:47.616Z,80.19
2023-04-07T08:36:47.367Z,78.00
2023-04-07T08:37:47.285Z,77.05
2023-04-07T08:39:08.177Z,77.15
2023-04-07T08:39:47.119Z,76.20
2023-04-07T08:40:47.035Z,77.24
2023-04-07T08:41:46.962Z,76.86
2023-04-07T08:42:47.361Z,77.62
2023-04-07T08:43:47.080Z,77.53
2023-04-07T08:45:07.753Z,76.67
2023-04-07T08:45:46.626Z,76.10
2023-04-07T08:46:46.577Z,76.96
2023-04-07T08:47:46.511Z,75.91
2023-04-07T08:48:46.380Z,75.43
2023-04-07T08:49:46.300Z,76.42
2023-04-07T08:51:07.200Z,76.81
2023-04-07T08:51:46.136Z,76.23
2023-04-07T08:52:46.058Z,75.85
2023-04-07T08:53:46.323Z,75.19
2023-04-07T08:54:45.903Z,75.38
2023-04-07T08:55:45.852Z,75.09
2023-04-07T08:57:06.719Z,76.81
2023-04-07T08:57:45.645Z,76.61
2023-04-07T08:58:45.574Z,74.71
2023-04-07T08:59:45.478Z,74.24
2023-04-07T09:00:45.437Z,73.95
2023-04-07T09:01:45.531Z,73.85
2023-04-07T09:03:06.349Z,72.71
2023-04-07T09:03:45.239Z,72.85
2023-04-07T09:04:45.076Z,71.28
2023-04-07T09:05:44.993Z,71.32
2023-04-07T09:06:44.922Z,71.09
2023-04-07T09:07:44.837Z,70.81
2023-04-07T09:09:05.736Z,71.76
2023-04-07T09:09:44.671Z,71.38
2023-04-07T09:10:44.590Z,72.62
2023-04-07T09:11:44.517Z,72.62
2023-04-07T09:12:44.459Z,73.66
2023-04-07T09:13:44.350Z,73.57
2023-04-07T09:15:05.245Z,72.71
2023-04-07T09:15:44.187Z,72.75
2023-04-07T09:16:44.140Z,72.90
2023-04-07T09:17:44.040Z,72.65
2023-04-07T09:18:43.947Z,72.56
2023-04-07T09:19:43.855Z,72.56
2023-04-07T09:21:04.760Z,71.86
2023-04-07T09:21:43.690Z,72.65
2023-04-07T09:22:43.694Z,72.65
2023-04-07T09:23:43.535Z,73.03
2023-04-07T09:24:43.450Z,73.70
2023-04-07T09:25:43.372Z,74.84
2023-04-07T09:27:04.275Z,73.61
2023-04-07T09:27:43.255Z,72.37
2023-04-07T09:28:43.136Z,73.03
2023-04-07T09:29:43.046Z,73.41
2023-04-07T09:30:42.972Z,73.70
2023-04-07T09:31:42.895Z,72.94
2023-04-07T09:33:03.871Z,73.03
2023-04-07T09:33:42.730Z,71.80
2023-04-07T09:34:42.642Z,71.80
2023-04-07T09:35:42.587Z,72.08
2023-04-07T09:36:42.491Z,71.61
2023-04-07T09:37:42.407Z,71.13
2023-04-07T09:39:03.301Z,71.89
2023-04-07T09:39:42.235Z,73.03
2023-04-07T09:40:42.170Z,71.80
2023-04-07T09:41:42.141Z,71.70
2023-04-07T09:42:41.997Z,71.51
2023-04-07T09:43:41.929Z,71.51
2023-04-07T09:45:02.821Z,70.65
2023-04-07T09:45:41.864Z,71.13
2023-04-07T09:46:41.712Z,71.61
2023-04-07T09:47:41.620Z,72.85
2023-04-07T09:48:41.508Z,72.46
2023-04-07T09:49:41.433Z,73.03
2023-04-07T09:51:02.330Z,73.41
2023-04-07T09:51:41.262Z,71.51
2023-04-07T09:52:41.194Z,71.89
2023-04-07T09:53:41.102Z,71.51
2023-04-07T09:54:41.024Z,71.32
2023-04-07T09:55:40.953Z,70.75
2023-04-07T09:57:01.853Z,71.07
2023-04-07T09:57:40.786Z,72.60
2023-04-07T09:58:40.707Z,71.93
2023-04-07T09:59:40.619Z,71.73
2023-04-07T10:00:40.544Z,71.36
2023-04-07T10:01:40.523Z,72.12
2023-04-07T10:03:01.435Z,72.41
2023-04-07T10:03:40.356Z,71.93
2023-04-07T10:04:40.316Z,71.83
2023-04-07T10:05:40.137Z,71.36
2023-04-07T10:06:40.058Z,70.40
2023-04-07T10:07:41.444Z,70.88
2023-04-07T10:09:00.890Z,71.26
2023-04-07T10:09:39.825Z,71.55
2023-04-07T10:10:39.736Z,70.88
2023-04-07T10:11:39.661Z,70.59
2023-04-07T10:12:39.576Z,70.50
2023-04-07T10:13:39.495Z,70.78
2023-04-07T10:15:00.401Z,69.74
2023-04-07T10:15:39.335Z,69.54
2023-04-07T10:16:39.287Z,69.96
2023-04-07T10:17:39.193Z,70.44
2023-04-07T10:18:39.100Z,70.82
2023-04-07T10:19:39.015Z,70.63
2023-04-07T10:20:59.922Z,71.30
2023-04-07T10:21:38.855Z,70.63
2023-04-07T10:22:38.777Z,69.58
2023-04-07T10:23:38.689Z,69.29
2023-04-07T10:24:38.618Z,68.53
2023-04-07T10:25:38.533Z,67.61
2023-04-07T10:26:59.439Z,67.80
2023-04-07T10:27:38.374Z,67.61
2023-04-07T10:28:38.304Z,68.28
2023-04-07T10:29:38.213Z,69.23
2023-04-07T10:30:38.134Z,67.71
2023-04-07T10:31:38.078Z,67.90
2023-04-07T10:32:59.082Z,68.76
2023-04-07T10:33:37.896Z,68.85
2023-04-07T10:34:37.817Z,70.22
2023-04-07T10:35:37.769Z,72.13
2023-04-07T10:36:37.662Z,69.84
2023-04-07T10:37:37.678Z,69.17
2023-04-07T10:38:58.479Z,66.82
2023-04-07T10:39:37.417Z,65.01
2023-04-07T10:40:37.356Z,64.81
2023-04-07T10:41:37.264Z,64.15
2023-04-07T10:42:37.171Z,65.39
2023-04-07T10:43:37.102Z,63.86
2023-04-07T10:44:57.994Z,63.39
2023-04-07T10:45:36.945Z,63.67
2023-04-07T10:46:36.879Z,63.80
2023-04-07T10:47:36.810Z,63.80
2023-04-07T10:48:36.707Z,64.56
2023-04-07T10:49:36.622Z,65.23
2023-04-07T10:50:57.522Z,63.51
2023-04-07T10:51:36.466Z,62.84
2023-04-07T10:52:36.379Z,62.84
2023-04-07T10:53:36.304Z,63.60
2023-04-07T10:54:36.224Z,63.23
2023-04-07T10:55:36.142Z,62.84
2023-04-07T10:56:57.050Z,62.37
2023-04-07T10:57:35.989Z,61.89
2023-04-07T10:58:35.905Z,62.46
2023-04-07T10:59:35.829Z,62.27
2023-04-07T11:00:35.747Z,62.18
2023-04-07T11:01:35.686Z,62.18
2023-04-07T11:02:56.702Z,62.37
2023-04-07T11:03:35.574Z,62.37
2023-04-07T11:04:35.487Z,62.71
2023-04-07T11:05:35.357Z,64.25
2023-04-07T11:06:35.276Z,64.34
2023-04-07T11:07:35.197Z,62.91
2023-04-07T11:08:56.100Z,63.20
2023-04-07T11:09:35.036Z,63.67
2023-04-07T11:10:34.959Z,63.86
2023-04-07T11:11:34.899Z,63.16
2023-04-07T11:12:34.804Z,64.69
2023-04-07T11:13:34.721Z,66.12
2023-04-07T11:14:55.618Z,66.88
2023-04-07T11:15:34.579Z,67.93
2023-04-07T11:16:34.523Z,67.74
2023-04-07T11:17:34.417Z,66.60
2023-04-07T11:18:34.322Z,65.45
2023-04-07T11:19:34.247Z,64.40
2023-04-07T11:20:55.154Z,65.36
2023-04-07T11:21:34.091Z,66.22
2023-04-07T11:22:34.010Z,65.74
2023-04-07T11:23:33.939Z,65.17
2023-04-07T11:24:33.863Z,65.45
2023-04-07T11:25:33.789Z,64.78
2023-04-07T11:26:54.670Z,64.88
2023-04-07T11:27:33.616Z,63.73
2023-04-07T11:28:33.548Z,63.26
2023-04-07T11:29:33.455Z,62.49
2023-04-07T11:30:33.379Z,62.94
2023-04-07T11:31:33.356Z,64.18
2023-04-07T11:32:54.228Z,64.85
2023-04-07T11:33:33.143Z,64.56
2023-04-07T11:34:33.064Z,64.56
2023-04-07T11:35:33.003Z,65.33
2023-04-07T11:36:32.903Z,64.47
2023-04-07T11:37:32.827Z,64.37
2023-04-07T11:38:53.729Z,64.94
2023-04-07T11:39:32.670Z,64.94
2023-04-07T11:40:32.581Z,66.38
2023-04-07T11:41:32.509Z,66.12
2023-04-07T11:42:32.430Z,64.88
2023-04-07T11:43:32.346Z,65.55
2023-04-07T11:44:53.264Z,65.70
2023-04-07T11:45:32.200Z,64.18
2023-04-07T11:46:32.189Z,63.70
2023-04-07T11:47:32.042Z,63.80
2023-04-07T11:48:31.942Z,64.75
2023-04-07T11:49:31.944Z,65.17
2023-04-07T11:50:52.901Z,65.04
2023-04-07T11:51:31.714Z,65.70
2023-04-07T11:52:31.630Z,66.69
2023-04-07T11:53:31.553Z,66.56
2023-04-07T11:54:31.472Z,69.62
2023-04-07T11:55:31.401Z,68.95
2023-04-07T11:56:52.299Z,67.14
2023-04-07T11:57:31.237Z,66.28
2023-04-07T11:58:31.302Z,65.13
2023-04-07T11:59:31.080Z,64.56
2023-04-07T12:00:30.999Z,64.37
2023-04-07T12:01:30.960Z,67.14
2023-04-07T12:02:51.914Z,66.94
2023-04-07T12:03:30.867Z,67.23
2023-04-07T12:04:30.740Z,67.61
2023-04-07T12:07:58.275Z,65.07
2023-04-07T12:08:36.303Z,64.21
2023-04-07T12:09:36.468Z,64.12
2023-04-07T12:10:36.141Z,65.07
2023-04-07T12:11:36.066Z,64.31
2023-04-07T12:12:35.985Z,65.45
2023-04-07T12:13:35.904Z,65.17
2023-04-07T12:14:35.865Z,65.64
2023-04-07T12:15:35.746Z,65.64
2023-04-07T12:16:35.684Z,65.07
2023-04-07T12:17:35.627Z,65.01
2023-04-07T12:18:35.516Z,66.25
2023-04-07T12:19:35.434Z,80.91
2023-04-07T12:20:37.168Z,84.44
2023-04-07T12:21:35.268Z,87.35
2023-04-07T12:22:35.193Z,91.07
2023-04-07T12:23:35.121Z,90.74
2023-04-07T12:32:52.603Z,93.36
2023-04-07T12:33:52.404Z,92.79
2023-04-07T12:34:52.296Z,89.93
2023-04-07T12:35:52.409Z,91.17
2023-04-07T12:36:52.201Z,93.79
2023-04-07T12:37:52.346Z,94.17
2023-04-07T12:38:51.995Z,94.65
2023-04-07T12:39:51.888Z,94.07
2023-04-07T12:40:51.815Z,90.83
2023-04-07T12:41:51.725Z,87.64
2023-04-07T12:42:51.649Z,85.01
2023-04-07T12:43:52.028Z,84.11
2023-04-07T12:44:51.482Z,84.44
2023-04-07T12:45:51.471Z,84.44
2023-04-07T12:46:51.328Z,83.20
2023-04-07T12:47:51.316Z,80.53
2023-04-07T12:48:51.166Z,81.86
2023-04-07T12:49:51.094Z,84.96
2023-04-07T12:50:51.005Z,82.00
2023-04-07T12:51:50.920Z,81.04
2023-04-07T12:52:50.845Z,82.95
2023-04-07T12:53:51.063Z,82.95
2023-04-07T12:54:50.686Z,79.52
2023-04-07T12:55:50.747Z,81.24
2023-04-07T12:56:50.527Z,82.00
2023-04-07T12:57:50.442Z,79.99
2023-04-07T12:58:50.376Z,78.70
2023-04-07T12:59:50.306Z,80.32
2023-04-07T13:00:50.212Z,78.03
2023-04-07T13:01:51.202Z,78.03